CheckWX is a tool to help pilots better visualize weather data.  It is not intended as a substitute for an official pre-flight weather briefing.

09:52:08 UTC

KDMW METAR
Carroll County Regional / Jack B Poage Field Airport
Westminster, Maryland, USA
Current

27 mins ago

KDMW 250925Z AUTO 13004KT 10SM BKN044 BKN065 OVC085 08/06 A2983 RMK AO2
Observed
Feb-25 @ 09:25 UTC
Wind
  • 130° at 4 KTS
Visibility
10 SM
Flight Rules
VFR
Cloud Levels
  • Broken at 4,400' AGL
  • Broken at 6,500' AGL
  • Overcast at 8,500' AGL
Temperature
C / 46°F
Dewpoint
C / 43°F
Humidity
87%
Altimeter
29.83" Hg
Pressure
1010.12 hPa
Previous

47 mins ago

KDMW 250905Z AUTO 00000KT 10SM UP BKN046 OVC060 08/06 A2984 RMK AO2
Observed
Feb-25 @ 09:05 UTC
Visibility
10 SM
Flight Rules
VFR
Conditions
Unknown precipitation
Cloud Levels
  • Broken at 4,600' AGL
  • Overcast at 6,000' AGL
Temperature
C / 46°F
Dewpoint
C / 43°F
Humidity
87%
Altimeter
29.84" Hg
Pressure
1010.52 hPa
Previous

1 hour ago

KDMW 250845Z AUTO 00000KT 10SM OVC060 08/05 A2985 RMK AO2
Observed
Feb-25 @ 08:45 UTC
Visibility
10 SM
Flight Rules
VFR
Cloud Levels
  • Overcast at 6,000' AGL
Temperature
C / 46°F
Dewpoint
C / 41°F
Humidity
82%
Altimeter
29.85" Hg
Pressure
1010.82 hPa